createdAt,value
2019-06-01T00:01:02.994Z,99.90
2019-06-01T00:04:11.672Z,99.90
2019-06-01T00:07:20.297Z,99.90
2019-06-01T00:10:39.169Z,99.90
2019-06-01T00:13:47.799Z,99.90
2019-06-01T00:16:56.435Z,99.90
2019-06-01T00:20:03.729Z,99.90
2019-06-01T00:23:12.283Z,99.90
2019-06-01T00:26:20.876Z,99.90
2019-06-01T00:29:29.423Z,99.90
2019-06-01T00:32:38.015Z,99.90
2019-06-01T00:35:47.437Z,99.90
2019-06-01T00:38:56.284Z,99.90
2019-06-01T00:42:04.873Z,99.90
2019-06-01T00:45:13.890Z,99.90
2019-06-01T00:48:22.517Z,99.90
2019-06-01T00:51:31.122Z,99.90
2019-06-01T00:54:39.717Z,99.90
2019-06-01T00:57:48.210Z,99.90
2019-06-01T01:01:07.010Z,99.90
2019-06-01T01:04:15.623Z,99.90
2019-06-01T01:07:24.118Z,99.90
2019-06-01T01:10:32.728Z,99.90
2019-06-01T01:13:41.641Z,99.90
2019-06-01T01:16:51.542Z,99.90
2019-06-01T01:20:00.669Z,99.90
2019-06-01T01:23:09.808Z,99.90
2019-06-01T01:26:18.421Z,99.90
2019-06-01T01:29:27.176Z,99.90
2019-06-01T01:32:35.756Z,99.90
2019-06-01T01:35:44.410Z,99.90
2019-06-01T01:39:03.798Z,99.90
2019-06-01T01:42:22.408Z,99.90
2019-06-01T01:45:31.020Z,99.90
2019-06-01T01:48:39.621Z,99.90
2019-06-01T01:51:48.315Z,99.90
2019-06-01T01:54:56.860Z,99.90
2019-06-01T01:58:05.724Z,99.90
2019-06-01T02:01:22.400Z,99.90
2019-06-01T02:04:24.577Z,99.90
2019-06-01T02:07:43.375Z,99.90
2019-06-01T02:10:53.038Z,99.90
2019-06-01T02:14:02.201Z,99.90
2019-06-01T02:17:10.866Z,99.90
2019-06-01T02:20:19.147Z,99.90
2019-06-01T02:23:28.358Z,99.90
2019-06-01T02:26:36.987Z,99.90
2019-06-01T02:29:45.796Z,99.90
2019-06-01T02:32:56.199Z,99.90
2019-06-01T02:36:05.405Z,99.90
2019-06-01T02:39:15.367Z,99.90
2019-06-01T02:42:24.388Z,99.90
2019-06-01T02:45:32.989Z,99.90
2019-06-01T02:48:42.979Z,99.90
2019-06-01T02:52:01.878Z,99.90
2019-06-01T02:55:15.659Z,99.90
2019-06-01T02:58:24.181Z,99.90
2019-06-01T03:01:36.723Z,99.90
2019-06-01T03:04:58.881Z,99.90
2019-06-01T03:08:20.313Z,99.90
2019-06-01T03:11:40.699Z,99.90
2019-06-01T03:14:50.961Z,99.90
2019-06-01T03:18:03.443Z,99.90
2019-06-01T03:21:25.425Z,99.90
2019-06-01T03:24:37.972Z,99.90
2019-06-01T03:27:59.973Z,99.90
2019-06-01T03:31:10.492Z,99.90
2019-06-01T03:34:19.089Z,99.90
2019-06-01T03:37:27.494Z,99.90
2019-06-01T03:40:36.095Z,99.90
2019-06-01T03:43:44.716Z,99.90
2019-06-01T03:47:03.930Z,99.90
2019-06-01T03:50:23.876Z,99.90
2019-06-01T03:53:32.399Z,99.90
2019-06-01T03:56:41.010Z,99.90
2019-06-01T04:00:00.959Z,99.90
2019-06-01T04:03:09.703Z,99.90
2019-06-01T04:06:18.377Z,99.90
2019-06-01T04:09:27.040Z,99.90
2019-06-01T04:12:35.620Z,99.90
2019-06-01T04:15:44.237Z,99.90
2019-06-01T04:18:53.141Z,99.90
2019-06-01T04:22:01.962Z,99.90
2019-06-01T04:25:10.738Z,99.90
2019-06-01T04:28:19.394Z,99.90
2019-06-01T04:31:38.285Z,99.90
2019-06-01T04:34:47.003Z,99.90
2019-06-01T04:37:55.605Z,99.90
2019-06-01T04:41:05.587Z,99.90
2019-06-01T04:44:14.464Z,99.90
2019-06-01T04:47:23.119Z,99.90
2019-06-01T04:50:32.109Z,99.60
2019-06-01T04:53:40.691Z,99.50
2019-06-01T04:56:49.388Z,98.90
2019-06-01T04:59:58.076Z,99.10
2019-06-01T05:03:08.748Z,98.80
2019-06-01T05:06:27.142Z,98.70
2019-06-01T05:09:35.720Z,98.60
2019-06-01T05:12:44.414Z,98.50
2019-06-01T05:15:53.041Z,98.70
2019-06-01T05:19:00.051Z,98.60
2019-06-01T05:22:08.741Z,98.20
2019-06-01T05:25:17.557Z,98.30
2019-06-01T05:28:26.193Z,98.30
2019-06-01T05:31:34.814Z,98.20
2019-06-01T05:34:53.666Z,98.10
2019-06-01T05:38:02.285Z,98.30
2019-06-01T05:41:11.943Z,97.80
2019-06-01T05:44:21.304Z,97.70
2019-06-01T05:47:28.896Z,97.50
2019-06-01T05:50:37.510Z,97.20
2019-06-01T05:53:46.127Z,97.40
2019-06-01T05:56:54.797Z,97.40
2019-06-01T06:00:03.419Z,97.40
2019-06-01T06:03:15.088Z,97.60
2019-06-01T06:06:22.463Z,97.40
2019-06-01T06:09:31.069Z,97.10
2019-06-01T06:12:39.771Z,96.80
2019-06-01T06:15:58.621Z,96.50
2019-06-01T06:19:07.286Z,96.60
2019-06-01T06:22:16.193Z,96.70
2019-06-01T06:25:28.316Z,96.40
2019-06-01T06:28:35.239Z,96.30
2019-06-01T06:31:43.846Z,96.50
2019-06-01T06:34:52.454Z,96.40
2019-06-01T06:38:01.214Z,95.70
2019-06-01T06:41:09.337Z,95.30
2019-06-01T06:44:29.532Z,94.90
2019-06-01T06:47:39.892Z,94.60
2019-06-01T06:50:48.496Z,94.50
2019-06-01T06:53:55.623Z,94.70
2019-06-01T06:57:04.307Z,94.80
2019-06-01T07:00:13.745Z,94.30
2019-06-01T07:03:23.099Z,94.50
2019-06-01T07:06:42.020Z,94.40
2019-06-01T07:09:50.591Z,94.40
2019-06-01T07:12:59.298Z,94.00
2019-06-01T07:16:07.917Z,94.10
2019-06-01T07:19:16.651Z,93.50
2019-06-01T07:22:23.855Z,93.50
2019-06-01T07:25:33.042Z,93.60
2019-06-01T07:28:44.556Z,93.80
2019-06-01T07:31:53.249Z,93.80
2019-06-01T07:35:01.937Z,93.80
2019-06-01T07:38:11.826Z,93.80
2019-06-01T07:41:20.681Z,94.00
2019-06-01T07:44:29.371Z,93.40
2019-06-01T07:47:48.708Z,94.00
2019-06-01T07:50:57.444Z,93.40
2019-06-01T07:54:06.181Z,93.30
2019-06-01T07:57:14.800Z,92.00
2019-06-01T08:00:24.517Z,91.80
2019-06-01T08:03:35.092Z,92.10
2019-06-01T08:06:47.307Z,91.70
2019-06-01T08:09:54.124Z,92.10
2019-06-01T08:13:02.802Z,92.30
2019-06-01T08:16:11.434Z,92.50
2019-06-01T08:19:32.756Z,91.70
2019-06-01T08:22:41.287Z,91.80
2019-06-01T08:25:49.812Z,91.70
2019-06-01T08:28:58.467Z,91.80
2019-06-01T08:32:07.073Z,91.70
2019-06-01T08:35:15.887Z,92.10
2019-06-01T08:38:25.556Z,91.90
2019-06-01T08:41:34.329Z,91.90
2019-06-01T08:44:43.059Z,91.10
2019-06-01T08:47:51.678Z,91.30
2019-06-01T08:51:00.355Z,91.30
2019-06-01T08:54:08.950Z,90.90
2019-06-01T08:57:18.896Z,91.50
2019-06-01T09:00:37.762Z,91.20
2019-06-01T09:03:47.080Z,91.20
2019-06-01T09:07:05.782Z,91.00
2019-06-01T09:10:15.755Z,91.40
2019-06-01T09:13:25.130Z,91.20
2019-06-01T09:16:45.468Z,90.70
2019-06-01T09:19:54.165Z,90.60
2019-06-01T09:23:02.774Z,90.50
2019-06-01T09:26:11.404Z,90.50
2019-06-01T09:29:21.244Z,90.50
2019-06-01T09:32:30.095Z,90.80
2019-06-01T09:35:55.590Z,90.50
2019-06-01T09:38:59.575Z,90.10
2019-06-01T09:42:08.199Z,90.10
2019-06-01T09:45:17.227Z,89.70
2019-06-01T09:48:27.062Z,90.10
2019-06-01T09:51:35.864Z,90.50
2019-06-01T09:54:44.585Z,90.40
2019-06-01T09:57:53.303Z,88.80
2019-06-01T10:01:02.249Z,89.30
2019-06-01T10:04:11.027Z,88.40
2019-06-01T10:07:19.621Z,87.50
2019-06-01T10:10:29.746Z,88.20
2019-06-01T10:13:38.563Z,88.30
2019-06-01T10:16:47.304Z,88.10
2019-06-01T10:20:07.103Z,86.20
2019-06-01T10:23:15.639Z,87.00
2019-06-01T10:26:24.282Z,86.10
2019-06-01T10:29:43.217Z,86.10
2019-06-01T10:32:51.919Z,86.30
2019-06-01T10:36:18.595Z,86.20
2019-06-01T10:39:10.960Z,87.20
2019-06-01T10:42:19.586Z,85.00
2019-06-01T10:45:28.193Z,87.10
2019-06-01T10:48:37.993Z,86.30
2019-06-01T10:51:46.821Z,85.10
2019-06-01T10:54:55.426Z,85.70
2019-06-01T10:58:14.325Z,85.10
2019-06-01T11:01:23.146Z,85.00
2019-06-01T11:04:32.764Z,83.80
2019-06-01T11:07:43.276Z,84.30
2019-06-01T11:10:52.014Z,82.90
2019-06-01T11:14:00.537Z,83.40
2019-06-01T11:17:09.156Z,83.20
2019-06-01T11:20:28.034Z,83.00
2019-06-01T11:23:37.484Z,83.20
2019-06-01T11:26:44.749Z,84.10
2019-06-01T11:29:53.307Z,84.00
2019-06-01T11:33:12.199Z,82.70
2019-06-01T11:36:20.833Z,81.30
2019-06-01T11:39:29.446Z,81.60
2019-06-01T11:42:39.069Z,81.70
2019-06-01T11:45:47.924Z,81.30
2019-06-01T11:49:07.013Z,81.30
2019-06-01T11:52:15.141Z,80.80
2019-06-01T11:55:23.675Z,80.70
2019-06-01T11:58:32.310Z,80.10
2019-06-01T12:01:41.755Z,79.30
2019-06-01T12:04:50.533Z,79.70
2019-06-01T12:07:59.647Z,78.60
2019-06-01T12:11:08.342Z,79.00
2019-06-01T12:14:18.167Z,78.70
2019-06-01T12:17:26.810Z,78.50
2019-06-01T12:20:36.635Z,77.30
2019-06-01T12:23:55.738Z,75.90
2019-06-01T12:27:04.496Z,75.80
2019-06-01T12:30:13.519Z,75.10
2019-06-01T12:33:22.165Z,74.40
2019-06-01T12:36:30.783Z,69.10
2019-06-01T12:39:40.377Z,68.30
2019-06-01T12:42:49.109Z,65.20
2019-06-01T12:46:07.154Z,62.70
2019-06-01T12:49:18.455Z,59.70
2019-06-01T12:52:27.058Z,57.20
2019-06-01T12:55:35.719Z,57.30
2019-06-01T12:58:46.026Z,57.30
2019-06-01T13:01:54.671Z,57.70
2019-06-01T13:05:03.474Z,59.20
2019-06-01T13:08:12.170Z,61.80
2019-06-01T13:11:20.981Z,61.30
2019-06-01T13:14:29.644Z,59.40
2019-06-01T13:17:38.155Z,59.60
2019-06-01T13:20:47.682Z,61.60
2019-06-01T13:23:56.554Z,62.10
2019-06-01T13:27:05.191Z,63.90
2019-06-01T13:30:14.255Z,66.40
2019-06-01T13:33:22.760Z,65.10
2019-06-01T13:36:32.882Z,65.30
2019-06-01T13:39:42.825Z,66.00
2019-06-01T13:42:51.734Z,66.50
2019-06-01T13:46:00.445Z,67.40
2019-06-01T13:49:09.084Z,67.40
2019-06-01T13:52:27.984Z,68.40
2019-06-01T13:55:36.544Z,67.80
2019-06-01T13:58:46.400Z,68.20
2019-06-01T14:01:55.380Z,68.80
2019-06-01T14:05:04.578Z,70.00
2019-06-01T14:08:28.045Z,71.10
2019-06-01T14:11:23.545Z,71.20
2019-06-01T14:14:32.306Z,74.90
2019-06-01T14:17:40.951Z,75.60
2019-06-01T14:20:49.699Z,75.20
2019-06-01T14:23:58.461Z,76.20
2019-06-01T14:27:07.199Z,78.70
2019-06-01T14:30:17.639Z,79.70
2019-06-01T14:33:27.611Z,81.20
2019-06-01T14:36:46.507Z,81.50
2019-06-01T14:39:55.425Z,80.70
2019-06-01T14:43:04.065Z,82.40
2019-06-01T14:46:12.975Z,82.60
2019-06-01T14:49:21.617Z,83.10
2019-06-01T14:52:30.162Z,83.40
2019-06-01T14:55:38.841Z,83.20
2019-06-01T14:58:47.803Z,83.70
2019-06-01T15:01:56.617Z,83.40
2019-06-01T15:05:06.182Z,84.10
2019-06-01T15:08:25.019Z,85.10
2019-06-01T15:11:33.725Z,85.50
2019-06-01T15:14:42.468Z,86.10
2019-06-01T15:17:51.808Z,86.00
2019-06-01T15:21:10.710Z,85.90
2019-06-01T15:24:19.493Z,85.50
2019-06-01T15:27:28.100Z,86.10
2019-06-01T15:30:36.767Z,85.90
2019-06-01T15:33:45.283Z,86.10
2019-06-01T15:36:55.563Z,86.80
2019-06-01T15:40:04.700Z,86.30
2019-06-01T15:43:13.346Z,87.30
2019-06-01T15:46:21.963Z,87.00
2019-06-01T15:49:30.599Z,87.40
2019-06-01T15:52:39.285Z,86.70
2019-06-01T15:55:59.192Z,86.80
2019-06-01T15:59:07.813Z,87.00
2019-06-01T16:02:16.412Z,86.30
2019-06-01T16:05:25.045Z,86.00
2019-06-01T16:08:44.029Z,85.90
2019-06-01T16:12:03.787Z,87.00
2019-06-01T16:15:14.046Z,86.90
2019-06-01T16:18:33.752Z,87.80
2019-06-01T16:21:53.725Z,86.80
2019-06-01T16:25:02.649Z,87.10
2019-06-01T16:28:11.440Z,87.20
2019-06-01T16:31:20.592Z,88.10
2019-06-01T16:34:29.138Z,88.30
2019-06-01T16:37:37.744Z,88.70
2019-06-01T16:40:46.376Z,87.00
2019-06-01T16:43:55.484Z,87.00
2019-06-01T16:47:04.635Z,87.50
2019-06-01T16:50:16.724Z,88.90
2019-06-01T16:53:25.241Z,89.50
2019-06-01T16:56:33.880Z,90.00
2019-06-01T16:59:42.104Z,90.50
2019-06-01T17:02:50.686Z,90.40
2019-06-01T17:06:09.438Z,90.40
2019-06-01T17:09:18.112Z,91.00
2019-06-01T17:12:26.651Z,91.00
2019-06-01T17:15:35.279Z,90.90
2019-06-01T17:18:45.213Z,90.90
2019-06-01T17:22:03.956Z,90.80
2019-06-01T17:25:13.004Z,90.70
2019-06-01T17:28:21.592Z,90.60
2019-06-01T17:31:30.240Z,90.80
2019-06-01T17:34:38.748Z,90.80
2019-06-01T17:37:47.515Z,90.70
2019-06-01T17:40:56.139Z,90.80
2019-06-01T17:44:04.838Z,90.90
2019-06-01T17:47:13.584Z,91.00
2019-06-01T17:50:23.574Z,91.20
2019-06-01T17:53:42.541Z,91.40
2019-06-01T17:56:51.177Z,91.50
2019-06-01T17:59:59.787Z,91.60
2019-06-01T18:03:12.093Z,91.50
2019-06-01T18:06:20.796Z,91.80
2019-06-01T18:09:29.586Z,91.60
2019-06-01T18:12:38.297Z,91.50
2019-06-01T18:15:50.117Z,91.50
2019-06-01T18:18:58.934Z,91.90
2019-06-01T18:22:07.024Z,91.90
2019-06-01T18:25:29.018Z,91.70
2019-06-01T18:28:37.663Z,91.80
2019-06-01T18:31:46.438Z,92.00
2019-06-01T18:34:54.965Z,91.90
2019-06-01T18:38:05.724Z,92.00
2019-06-01T18:41:19.531Z,92.10
2019-06-01T18:44:25.048Z,92.20
2019-06-01T18:47:33.761Z,92.00
2019-06-01T18:50:42.591Z,92.10
2019-06-01T18:53:52.618Z,92.20
2019-06-01T18:57:14.166Z,92.30
2019-06-01T19:00:15.702Z,92.30
2019-06-01T19:03:24.344Z,92.50
2019-06-01T19:06:32.848Z,92.60
2019-06-01T19:09:42.626Z,92.80
2019-06-01T19:12:51.267Z,92.70
2019-06-01T19:16:10.150Z,92.60
2019-06-01T19:19:18.833Z,92.30
2019-06-01T19:22:27.496Z,92.50
2019-06-01T19:25:36.121Z,92.50
2019-06-01T19:28:44.995Z,92.20
2019-06-01T19:31:53.612Z,92.00
2019-06-01T19:35:02.285Z,92.20
2019-06-01T19:38:11.420Z,92.40
2019-06-01T19:41:20.296Z,92.60
2019-06-01T19:44:29.169Z,92.60
2019-06-01T19:47:37.787Z,92.70
2019-06-01T19:50:46.489Z,92.80
2019-06-01T19:53:55.096Z,92.70
2019-06-01T19:57:03.708Z,92.30
2019-06-01T20:00:12.516Z,92.50
2019-06-01T20:03:22.703Z,92.20
2019-06-01T20:06:31.407Z,91.80
2019-06-01T20:09:40.108Z,91.60
2019-06-01T20:13:04.947Z,91.50
2019-06-01T20:16:14.607Z,91.50
2019-06-01T20:19:23.353Z,91.50
2019-06-01T20:22:31.857Z,91.40
2019-06-01T20:25:39.536Z,91.40
2019-06-01T20:28:48.145Z,91.40
2019-06-01T20:31:56.902Z,91.40
2019-06-01T20:35:06.292Z,91.60
2019-06-01T20:38:16.450Z,91.70
2019-06-01T20:41:25.270Z,92.10
2019-06-01T20:44:33.981Z,92.00
2019-06-01T20:47:42.616Z,92.10
2019-06-01T20:50:51.393Z,92.20
2019-06-01T20:54:00.097Z,92.10
2019-06-01T20:57:08.731Z,92.20
2019-06-01T21:00:20.014Z,92.20
2019-06-01T21:03:28.660Z,91.90
2019-06-01T21:06:37.288Z,91.80
2019-06-01T21:09:45.900Z,91.80
2019-06-01T21:12:54.598Z,92.00
2019-06-01T21:16:03.210Z,92.10
2019-06-01T21:19:11.846Z,92.20
2019-06-01T21:22:36.703Z,92.60
2019-06-01T21:25:45.429Z,92.70
2019-06-01T21:28:53.965Z,92.60
2019-06-01T21:32:02.805Z,92.50
2019-06-01T21:35:11.419Z,92.80
2019-06-01T21:38:21.083Z,92.80
2019-06-01T21:41:29.939Z,92.80
2019-06-01T21:44:48.803Z,92.50
2019-06-01T21:47:57.466Z,92.40
2019-06-01T21:51:06.075Z,92.20
2019-06-01T21:54:16.025Z,92.60
2019-06-01T21:57:27.642Z,92.70
2019-06-01T22:00:48.128Z,93.00
2019-06-01T22:03:56.664Z,93.30
2019-06-01T22:07:06.498Z,92.90
2019-06-01T22:10:15.288Z,93.20
2019-06-01T22:13:25.886Z,93.50
2019-06-01T22:16:34.341Z,93.40
2019-06-01T22:19:42.980Z,93.20
2019-06-01T22:23:01.872Z,93.30
2019-06-01T22:26:10.646Z,93.70
2019-06-01T22:29:20.175Z,93.90
2019-06-01T22:32:31.306Z,94.10
2019-06-01T22:35:39.266Z,95.00
2019-06-01T22:38:47.917Z,94.40
2019-06-01T22:42:06.709Z,94.50
2019-06-01T22:45:15.541Z,94.30
2019-06-01T22:48:24.604Z,94.50
2019-06-01T22:51:43.619Z,94.20
2019-06-01T22:54:52.211Z,94.50
2019-06-01T22:58:00.787Z,94.60
2019-06-01T23:01:09.414Z,94.90
2019-06-01T23:04:18.051Z,94.90
2019-06-01T23:07:27.253Z,95.10
2019-06-01T23:10:35.994Z,95.40
2019-06-01T23:13:53.404Z,95.60
2019-06-01T23:16:54.964Z,95.80
2019-06-01T23:20:03.736Z,96.00
2019-06-01T23:23:13.759Z,96.10
2019-06-01T23:26:32.599Z,96.10
2019-06-01T23:29:42.011Z,96.10
2019-06-01T23:32:50.614Z,96.10
2019-06-01T23:35:59.742Z,96.20
2019-06-01T23:39:09.257Z,96.40
2019-06-01T23:42:17.758Z,96.40
2019-06-01T23:45:26.668Z,96.90
2019-06-01T23:48:35.424Z,97.00
2019-06-01T23:51:44.061Z,97.40
2019-06-01T23:54:52.826Z,97.60
2019-06-01T23:58:01.346Z,98.10
